sensor_id;sensor_type;location;lat;lon;timestamp;temperature;humidity
2751;DHT22;1383;48.362;10.908;2023-05-10T00:01:27;15.50;94.60
2751;DHT22;1383;48.362;10.908;2023-05-10T00:03:54;15.60;95.00
2751;DHT22;1383;48.362;10.908;2023-05-10T00:06:21;15.60;94.80
2751;DHT22;1383;48.362;10.908;2023-05-10T00:08:48;15.60;94.80
2751;DHT22;1383;48.362;10.908;2023-05-10T00:11:14;15.70;94.60
2751;DHT22;1383;48.362;10.908;2023-05-10T00:13:41;15.60;94.10
2751;DHT22;1383;48.362;10.908;2023-05-10T00:16:08;15.70;93.90
2751;DHT22;1383;48.362;10.908;2023-05-10T00:18:35;15.60;93.90
2751;DHT22;1383;48.362;10.908;2023-05-10T00:21:01;15.70;94.20
2751;DHT22;1383;48.362;10.908;2023-05-10T00:23:28;15.70;94.10
2751;DHT22;1383;48.362;10.908;2023-05-10T00:25:55;15.70;94.20
2751;DHT22;1383;48.362;10.908;2023-05-10T00:28:22;15.70;94.00
2751;DHT22;1383;48.362;10.908;2023-05-10T00:30:49;15.70;93.70
2751;DHT22;1383;48.362;10.908;2023-05-10T00:33:16;15.60;93.50
2751;DHT22;1383;48.362;10.908;2023-05-10T00:35:42;15.60;93.60
2751;DHT22;1383;48.362;10.908;2023-05-10T00:38:10;15.60;93.70
2751;DHT22;1383;48.362;10.908;2023-05-10T00:40:37;15.70;93.70
2751;DHT22;1383;48.362;10.908;2023-05-10T00:43:04;15.70;93.90
2751;DHT22;1383;48.362;10.908;2023-05-10T00:45:32;15.70;93.40
2751;DHT22;1383;48.362;10.908;2023-05-10T00:48:01;15.70;93.40
2751;DHT22;1383;48.362;10.908;2023-05-10T00:50:29;15.70;93.40
2751;DHT22;1383;48.362;10.908;2023-05-10T00:52:58;15.70;93.20
2751;DHT22;1383;48.362;10.908;2023-05-10T00:55:25;15.60;92.30
2751;DHT22;1383;48.362;10.908;2023-05-10T00:57:53;15.50;92.50
2751;DHT22;1383;48.362;10.908;2023-05-10T01:00:20;15.50;92.80
2751;DHT22;1383;48.362;10.908;2023-05-10T01:02:47;15.50;93.00
2751;DHT22;1383;48.362;10.908;2023-05-10T01:05:14;15.50;93.30
2751;DHT22;1383;48.362;10.908;2023-05-10T01:07:41;15.60;92.90
2751;DHT22;1383;48.362;10.908;2023-05-10T01:10:08;15.70;93.20
2751;DHT22;1383;48.362;10.908;2023-05-10T01:12:37;15.70;92.50
2751;DHT22;1383;48.362;10.908;2023-05-10T01:15:06;15.70;92.30
2751;DHT22;1383;48.362;10.908;2023-05-10T01:17:35;15.70;91.40
2751;DHT22;1383;48.362;10.908;2023-05-10T01:20:04;15.70;91.00
2751;DHT22;1383;48.362;10.908;2023-05-10T01:25:49;15.70;91.00
2751;DHT22;1383;48.362;10.908;2023-05-10T01:34:16;15.70;90.50
2751;DHT22;1383;48.362;10.908;2023-05-10T01:37:01;15.60;89.90
2751;DHT22;1383;48.362;10.908;2023-05-10T01:39:36;15.60;90.20
2751;DHT22;1383;48.362;10.908;2023-05-10T01:42:14;15.50;90.10
2751;DHT22;1383;48.362;10.908;2023-05-10T01:47:48;15.60;90.80
2751;DHT22;1383;48.362;10.908;2023-05-10T01:50:23;15.60;90.60
2751;DHT22;1383;48.362;10.908;2023-05-10T01:52:53;15.50;90.30
2751;DHT22;1383;48.362;10.908;2023-05-10T01:55:24;15.40;90.10
2751;DHT22;1383;48.362;10.908;2023-05-10T01:57:58;15.40;90.10
2751;DHT22;1383;48.362;10.908;2023-05-10T02:00:27;15.40;90.20
2751;DHT22;1383;48.362;10.908;2023-05-10T02:02:55;15.40;90.30
2751;DHT22;1383;48.362;10.908;2023-05-10T02:05:23;15.30;90.20
2751;DHT22;1383;48.362;10.908;2023-05-10T02:07:51;15.40;90.50
2751;DHT22;1383;48.362;10.908;2023-05-10T02:10:20;15.30;90.20
2751;DHT22;1383;48.362;10.908;2023-05-10T02:12:47;15.30;90.70
2751;DHT22;1383;48.362;10.908;2023-05-10T02:15:19;15.20;90.70
2751;DHT22;1383;48.362;10.908;2023-05-10T02:17:47;15.30;90.80
2751;DHT22;1383;48.362;10.908;2023-05-10T02:20:16;15.30;90.80
2751;DHT22;1383;48.362;10.908;2023-05-10T02:22:45;15.30;91.30
2751;DHT22;1383;48.362;10.908;2023-05-10T02:25:14;15.40;91.20
2751;DHT22;1383;48.362;10.908;2023-05-10T02:27:43;15.40;90.70
2751;DHT22;1383;48.362;10.908;2023-05-10T02:30:11;15.40;90.60
2751;DHT22;1383;48.362;10.908;2023-05-10T02:32:39;15.40;90.00
2751;DHT22;1383;48.362;10.908;2023-05-10T02:35:08;15.30;89.60
2751;DHT22;1383;48.362;10.908;2023-05-10T02:37:37;15.30;89.00
2751;DHT22;1383;48.362;10.908;2023-05-10T02:40:05;15.20;90.10
2751;DHT22;1383;48.362;10.908;2023-05-10T02:42:36;15.20;90.00
2751;DHT22;1383;48.362;10.908;2023-05-10T02:45:08;15.20;89.40
2751;DHT22;1383;48.362;10.908;2023-05-10T02:47:37;15.10;90.00
2751;DHT22;1383;48.362;10.908;2023-05-10T02:50:04;15.10;90.00
2751;DHT22;1383;48.362;10.908;2023-05-10T02:52:39;15.10;90.20
2751;DHT22;1383;48.362;10.908;2023-05-10T02:55:09;15.00;90.30
2751;DHT22;1383;48.362;10.908;2023-05-10T02:57:40;14.90;91.10
2751;DHT22;1383;48.362;10.908;2023-05-10T03:00:08;15.00;91.20
2751;DHT22;1383;48.362;10.908;2023-05-10T03:02:35;15.00;91.30
2751;DHT22;1383;48.362;10.908;2023-05-10T03:05:03;15.00;91.40
2751;DHT22;1383;48.362;10.908;2023-05-10T03:07:30;15.00;91.80
2751;DHT22;1383;48.362;10.908;2023-05-10T03:09:57;15.00;91.40
2751;DHT22;1383;48.362;10.908;2023-05-10T03:12:44;15.00;91.50
2751;DHT22;1383;48.362;10.908;2023-05-10T03:15:33;15.00;91.20
2751;DHT22;1383;48.362;10.908;2023-05-10T03:18:10;14.90;91.30
2751;DHT22;1383;48.362;10.908;2023-05-10T03:20:49;14.90;91.70
2751;DHT22;1383;48.362;10.908;2023-05-10T03:23:33;14.90;91.60
2751;DHT22;1383;48.362;10.908;2023-05-10T03:26:01;14.80;91.80
2751;DHT22;1383;48.362;10.908;2023-05-10T03:28:30;14.70;92.40
2751;DHT22;1383;48.362;10.908;2023-05-10T03:30:58;14.70;92.60
2751;DHT22;1383;48.362;10.908;2023-05-10T03:33:26;14.80;92.70
2751;DHT22;1383;48.362;10.908;2023-05-10T03:35:53;14.80;92.90
2751;DHT22;1383;48.362;10.908;2023-05-10T03:38:19;14.80;93.20
2751;DHT22;1383;48.362;10.908;2023-05-10T03:40:46;14.70;93.10
2751;DHT22;1383;48.362;10.908;2023-05-10T03:43:13;14.70;93.30
2751;DHT22;1383;48.362;10.908;2023-05-10T03:45:40;14.70;93.60
2751;DHT22;1383;48.362;10.908;2023-05-10T03:48:06;14.70;93.50
2751;DHT22;1383;48.362;10.908;2023-05-10T03:50:33;14.60;93.60
2751;DHT22;1383;48.362;10.908;2023-05-10T03:53:00;14.60;94.30
2751;DHT22;1383;48.362;10.908;2023-05-10T03:55:27;14.50;94.40
2751;DHT22;1383;48.362;10.908;2023-05-10T03:57:54;14.50;94.70
2751;DHT22;1383;48.362;10.908;2023-05-10T04:00:21;14.40;94.60
2751;DHT22;1383;48.362;10.908;2023-05-10T04:02:48;14.30;94.80
2751;DHT22;1383;48.362;10.908;2023-05-10T04:05:15;14.20;94.40
2751;DHT22;1383;48.362;10.908;2023-05-10T04:07:42;14.10;93.40
2751;DHT22;1383;48.362;10.908;2023-05-10T04:10:11;14.00;93.90
2751;DHT22;1383;48.362;10.908;2023-05-10T04:12:38;13.90;94.00
2751;DHT22;1383;48.362;10.908;2023-05-10T04:15:05;13.90;94.10
2751;DHT22;1383;48.362;10.908;2023-05-10T04:17:33;13.90;94.50
2751;DHT22;1383;48.362;10.908;2023-05-10T04:19:59;13.90;94.60
2751;DHT22;1383;48.362;10.908;2023-05-10T04:22:26;13.90;94.60
2751;DHT22;1383;48.362;10.908;2023-05-10T04:24:54;13.90;93.80
2751;DHT22;1383;48.362;10.908;2023-05-10T04:27:21;13.90;94.10
2751;DHT22;1383;48.362;10.908;2023-05-10T04:29:48;13.90;94.20
2751;DHT22;1383;48.362;10.908;2023-05-10T04:32:15;13.90;94.80
2751;DHT22;1383;48.362;10.908;2023-05-10T04:34:43;13.90;95.20
2751;DHT22;1383;48.362;10.908;2023-05-10T04:37:10;13.90;95.00
2751;DHT22;1383;48.362;10.908;2023-05-10T04:39:37;13.90;94.90
2751;DHT22;1383;48.362;10.908;2023-05-10T04:42:06;13.90;94.90
2751;DHT22;1383;48.362;10.908;2023-05-10T04:44:33;13.90;94.10
2751;DHT22;1383;48.362;10.908;2023-05-10T04:47:00;13.90;94.20
2751;DHT22;1383;48.362;10.908;2023-05-10T04:49:29;14.00;94.30
2751;DHT22;1383;48.362;10.908;2023-05-10T04:51:56;14.00;93.80
2751;DHT22;1383;48.362;10.908;2023-05-10T04:54:23;14.00;92.70
2751;DHT22;1383;48.362;10.908;2023-05-10T04:56:50;13.90;92.20
2751;DHT22;1383;48.362;10.908;2023-05-10T04:59:16;13.90;92.30
2751;DHT22;1383;48.362;10.908;2023-05-10T05:01:43;14.00;92.90
2751;DHT22;1383;48.362;10.908;2023-05-10T05:04:10;14.10;92.70
2751;DHT22;1383;48.362;10.908;2023-05-10T05:06:37;14.10;92.00
2751;DHT22;1383;48.362;10.908;2023-05-10T05:09:03;14.10;91.00
2751;DHT22;1383;48.362;10.908;2023-05-10T05:11:30;14.10;90.30
2751;DHT22;1383;48.362;10.908;2023-05-10T05:13:57;14.30;90.40
2751;DHT22;1383;48.362;10.908;2023-05-10T05:16:25;14.20;89.80
2751;DHT22;1383;48.362;10.908;2023-05-10T05:18:53;14.30;90.40
2751;DHT22;1383;48.362;10.908;2023-05-10T05:21:19;14.30;90.50
2751;DHT22;1383;48.362;10.908;2023-05-10T05:23:47;14.30;90.60
2751;DHT22;1383;48.362;10.908;2023-05-10T05:26:13;14.30;90.60
2751;DHT22;1383;48.362;10.908;2023-05-10T05:28:41;14.30;90.50
2751;DHT22;1383;48.362;10.908;2023-05-10T05:31:08;14.40;90.60
2751;DHT22;1383;48.362;10.908;2023-05-10T05:33:36;14.50;90.50
2751;DHT22;1383;48.362;10.908;2023-05-10T05:36:04;14.50;90.40
2751;DHT22;1383;48.362;10.908;2023-05-10T05:38:31;14.60;90.40
2751;DHT22;1383;48.362;10.908;2023-05-10T05:40:58;14.70;90.60
2751;DHT22;1383;48.362;10.908;2023-05-10T05:43:24;14.80;89.70
2751;DHT22;1383;48.362;10.908;2023-05-10T05:45:55;14.90;88.30
2751;DHT22;1383;48.362;10.908;2023-05-10T05:48:24;15.00;88.80
2751;DHT22;1383;48.362;10.908;2023-05-10T05:50:54;15.00;87.30
2751;DHT22;1383;48.362;10.908;2023-05-10T05:53:22;14.90;86.50
2751;DHT22;1383;48.362;10.908;2023-05-10T05:55:54;15.00;86.30
2751;DHT22;1383;48.362;10.908;2023-05-10T05:58:21;15.00;85.50
2751;DHT22;1383;48.362;10.908;2023-05-10T06:00:48;15.00;86.30
2751;DHT22;1383;48.362;10.908;2023-05-10T06:03:15;15.00;85.80
2751;DHT22;1383;48.362;10.908;2023-05-10T06:05:42;15.00;84.60
2751;DHT22;1383;48.362;10.908;2023-05-10T06:08:09;15.10;84.60
2751;DHT22;1383;48.362;10.908;2023-05-10T06:10:36;15.10;84.60
2751;DHT22;1383;48.362;10.908;2023-05-10T06:13:03;15.20;83.90
2751;DHT22;1383;48.362;10.908;2023-05-10T06:15:30;15.30;83.80
2751;DHT22;1383;48.362;10.908;2023-05-10T06:17:57;15.30;83.50
2751;DHT22;1383;48.362;10.908;2023-05-10T06:20:24;15.40;82.90
2751;DHT22;1383;48.362;10.908;2023-05-10T06:22:50;15.50;81.90
2751;DHT22;1383;48.362;10.908;2023-05-10T06:25:17;15.60;82.60
2751;DHT22;1383;48.362;10.908;2023-05-10T06:27:45;15.60;80.20
2751;DHT22;1383;48.362;10.908;2023-05-10T06:30:17;15.70;80.00
2751;DHT22;1383;48.362;10.908;2023-05-10T06:32:44;15.70;77.90
2751;DHT22;1383;48.362;10.908;2023-05-10T06:35:11;15.70;78.40
2751;DHT22;1383;48.362;10.908;2023-05-10T06:37:38;15.70;75.60
2751;DHT22;1383;48.362;10.908;2023-05-10T06:40:06;15.70;75.30
2751;DHT22;1383;48.362;10.908;2023-05-10T06:42:33;15.80;75.20
2751;DHT22;1383;48.362;10.908;2023-05-10T06:45:00;15.90;75.60
2751;DHT22;1383;48.362;10.908;2023-05-10T06:47:26;15.90;73.20
2751;DHT22;1383;48.362;10.908;2023-05-10T06:49:53;16.00;73.00
2751;DHT22;1383;48.362;10.908;2023-05-10T06:52:20;16.00;71.60
2751;DHT22;1383;48.362;10.908;2023-05-10T06:54:47;16.10;72.00
2751;DHT22;1383;48.362;10.908;2023-05-10T06:57:14;16.20;71.10
2751;DHT22;1383;48.362;10.908;2023-05-10T07:00:00;16.30;70.30
2751;DHT22;1383;48.362;10.908;2023-05-10T07:02:27;16.50;68.80
2751;DHT22;1383;48.362;10.908;2023-05-10T07:04:53;16.60;66.40
2751;DHT22;1383;48.362;10.908;2023-05-10T07:07:21;16.70;65.80
2751;DHT22;1383;48.362;10.908;2023-05-10T07:09:47;16.80;66.00
2751;DHT22;1383;48.362;10.908;2023-05-10T07:12:16;16.90;64.70
2751;DHT22;1383;48.362;10.908;2023-05-10T07:14:43;17.10;64.20
2751;DHT22;1383;48.362;10.908;2023-05-10T07:17:10;17.20;63.10
2751;DHT22;1383;48.362;10.908;2023-05-10T07:19:36;17.40;61.40
2751;DHT22;1383;48.362;10.908;2023-05-10T07:22:03;17.80;60.50
2751;DHT22;1383;48.362;10.908;2023-05-10T07:24:31;18.20;57.90
2751;DHT22;1383;48.362;10.908;2023-05-10T07:26:58;18.70;56.80
2751;DHT22;1383;48.362;10.908;2023-05-10T07:29:25;18.90;54.10
2751;DHT22;1383;48.362;10.908;2023-05-10T07:31:52;19.00;52.60
2751;DHT22;1383;48.362;10.908;2023-05-10T07:34:24;19.00;51.70
2751;DHT22;1383;48.362;10.908;2023-05-10T07:36:52;18.80;51.80
2751;DHT22;1383;48.362;10.908;2023-05-10T07:39:19;18.50;50.10
2751;DHT22;1383;48.362;10.908;2023-05-10T07:41:57;18.20;51.20
2751;DHT22;1383;48.362;10.908;2023-05-10T07:44:23;18.10;51.80
2751;DHT22;1383;48.362;10.908;2023-05-10T07:46:50;18.10;51.80
2751;DHT22;1383;48.362;10.908;2023-05-10T07:49:17;18.40;52.10
2751;DHT22;1383;48.362;10.908;2023-05-10T07:51:44;18.30;51.80
2751;DHT22;1383;48.362;10.908;2023-05-10T07:54:11;18.40;51.50
2751;DHT22;1383;48.362;10.908;2023-05-10T07:56:39;18.50;50.20
2751;DHT22;1383;48.362;10.908;2023-05-10T07:59:07;18.50;50.90
2751;DHT22;1383;48.362;10.908;2023-05-10T08:01:36;18.50;50.70
2751;DHT22;1383;48.362;10.908;2023-05-10T08:04:03;18.50;52.10
2751;DHT22;1383;48.362;10.908;2023-05-10T08:06:30;18.50;51.20
2751;DHT22;1383;48.362;10.908;2023-05-10T08:08:57;18.50;49.50
2751;DHT22;1383;48.362;10.908;2023-05-10T08:11:24;18.40;49.80
2751;DHT22;1383;48.362;10.908;2023-05-10T08:13:55;18.30;50.30
2751;DHT22;1383;48.362;10.908;2023-05-10T08:16:22;18.30;49.80
2751;DHT22;1383;48.362;10.908;2023-05-10T08:18:49;18.30;50.50
2751;DHT22;1383;48.362;10.908;2023-05-10T08:21:17;18.40;50.60
2751;DHT22;1383;48.362;10.908;2023-05-10T08:23:44;18.40;48.90
2751;DHT22;1383;48.362;10.908;2023-05-10T08:26:11;18.50;49.20
2751;DHT22;1383;48.362;10.908;2023-05-10T08:28:38;18.50;49.60
2751;DHT22;1383;48.362;10.908;2023-05-10T08:31:05;18.40;49.20
2751;DHT22;1383;48.362;10.908;2023-05-10T08:33:32;18.40;49.30
2751;DHT22;1383;48.362;10.908;2023-05-10T08:35:58;18.50;48.70
2751;DHT22;1383;48.362;10.908;2023-05-10T08:38:26;18.40;48.70
2751;DHT22;1383;48.362;10.908;2023-05-10T08:40:54;18.40;48.90
2751;DHT22;1383;48.362;10.908;2023-05-10T08:43:29;18.40;48.90
2751;DHT22;1383;48.362;10.908;2023-05-10T08:46:00;18.10;47.40
2751;DHT22;1383;48.362;10.908;2023-05-10T08:48:29;18.00;48.30
2751;DHT22;1383;48.362;10.908;2023-05-10T08:50:58;17.90;49.30
2751;DHT22;1383;48.362;10.908;2023-05-10T08:53:26;17.70;50.60
2751;DHT22;1383;48.362;10.908;2023-05-10T08:55:55;17.60;50.50
2751;DHT22;1383;48.362;10.908;2023-05-10T08:58:22;17.60;51.00
2751;DHT22;1383;48.362;10.908;2023-05-10T09:00:49;17.60;51.10
2751;DHT22;1383;48.362;10.908;2023-05-10T09:03:20;17.60;50.60
2751;DHT22;1383;48.362;10.908;2023-05-10T09:05:48;17.60;50.50
2751;DHT22;1383;48.362;10.908;2023-05-10T09:08:15;17.90;51.20
2751;DHT22;1383;48.362;10.908;2023-05-10T09:10:44;18.10;50.30
2751;DHT22;1383;48.362;10.908;2023-05-10T09:13:14;18.10;47.90
2751;DHT22;1383;48.362;10.908;2023-05-10T09:15:43;17.90;48.10
2751;DHT22;1383;48.362;10.908;2023-05-10T09:18:11;17.80;48.40
2751;DHT22;1383;48.362;10.908;2023-05-10T09:20:38;18.00;48.90
2751;DHT22;1383;48.362;10.908;2023-05-10T09:23:04;18.10;49.00
2751;DHT22;1383;48.362;10.908;2023-05-10T09:25:32;18.00;49.20
2751;DHT22;1383;48.362;10.908;2023-05-10T09:28:06;17.90;50.40
2751;DHT22;1383;48.362;10.908;2023-05-10T09:30:34;17.70;51.90
2751;DHT22;1383;48.362;10.908;2023-05-10T09:33:01;17.60;52.50
2751;DHT22;1383;48.362;10.908;2023-05-10T09:35:29;17.80;53.40
2751;DHT22;1383;48.362;10.908;2023-05-10T09:38:01;18.20;51.60
2751;DHT22;1383;48.362;10.908;2023-05-10T09:40:29;18.50;49.40
2751;DHT22;1383;48.362;10.908;2023-05-10T09:43:01;18.60;48.60
2751;DHT22;1383;48.362;10.908;2023-05-10T09:45:30;18.50;48.60
2751;DHT22;1383;48.362;10.908;2023-05-10T09:47:57;18.00;50.90
2751;DHT22;1383;48.362;10.908;2023-05-10T09:50:27;17.50;53.30
2751;DHT22;1383;48.362;10.908;2023-05-10T09:52:58;17.10;55.70
2751;DHT22;1383;48.362;10.908;2023-05-10T09:55:43;16.80;59.60
2751;DHT22;1383;48.362;10.908;2023-05-10T09:58:13;16.60;61.40
2751;DHT22;1383;48.362;10.908;2023-05-10T10:00:45;16.30;63.70
2751;DHT22;1383;48.362;10.908;2023-05-10T10:03:16;16.20;67.10
2751;DHT22;1383;48.362;10.908;2023-05-10T10:05:44;16.10;67.60
2751;DHT22;1383;48.362;10.908;2023-05-10T10:08:11;15.90;67.70
2751;DHT22;1383;48.362;10.908;2023-05-10T10:10:39;16.00;69.10
2751;DHT22;1383;48.362;10.908;2023-05-10T10:13:12;16.10;71.20
2751;DHT22;1383;48.362;10.908;2023-05-10T10:15:39;16.10;71.10
2751;DHT22;1383;48.362;10.908;2023-05-10T10:18:06;16.20;71.00
2751;DHT22;1383;48.362;10.908;2023-05-10T10:20:37;16.20;68.40
2751;DHT22;1383;48.362;10.908;2023-05-10T10:23:04;16.20;67.90
2751;DHT22;1383;48.362;10.908;2023-05-10T10:25:31;16.20;62.60
2751;DHT22;1383;48.362;10.908;2023-05-10T10:28:16;16.10;61.80
2751;DHT22;1383;48.362;10.908;2023-05-10T10:30:48;16.40;62.10
2751;DHT22;1383;48.362;10.908;2023-05-10T10:33:54;16.90;61.90
2751;DHT22;1383;48.362;10.908;2023-05-10T10:36:22;17.30;60.20
2751;DHT22;1383;48.362;10.908;2023-05-10T10:41:37;17.40;58.70
2751;DHT22;1383;48.362;10.908;2023-05-10T10:44:23;17.50;59.70
2751;DHT22;1383;48.362;10.908;2023-05-10T10:52:22;17.80;58.10
2751;DHT22;1383;48.362;10.908;2023-05-10T10:54:58;17.90;56.80
2751;DHT22;1383;48.362;10.908;2023-05-10T10:57:25;17.80;52.30
2751;DHT22;1383;48.362;10.908;2023-05-10T11:03:05;18.10;52.70
2751;DHT22;1383;48.362;10.908;2023-05-10T11:08:18;17.90;50.90
2751;DHT22;1383;48.362;10.908;2023-05-10T11:13:34;18.00;49.80
2751;DHT22;1383;48.362;10.908;2023-05-10T11:16:20;18.10;49.60
2751;DHT22;1383;48.362;10.908;2023-05-10T11:19:12;18.10;49.50
2751;DHT22;1383;48.362;10.908;2023-05-10T11:24:38;18.20;50.50
2751;DHT22;1383;48.362;10.908;2023-05-10T11:27:05;18.10;49.50
2751;DHT22;1383;48.362;10.908;2023-05-10T11:29:32;18.10;49.50
2751;DHT22;1383;48.362;10.908;2023-05-10T11:31:59;18.20;49.00
2751;DHT22;1383;48.362;10.908;2023-05-10T11:34:28;18.40;50.00
2751;DHT22;1383;48.362;10.908;2023-05-10T11:36:57;18.40;48.90
2751;DHT22;1383;48.362;10.908;2023-05-10T11:39:31;18.50;48.70
2751;DHT22;1383;48.362;10.908;2023-05-10T11:41:59;18.60;49.00
2751;DHT22;1383;48.362;10.908;2023-05-10T11:44:32;18.50;48.40
2751;DHT22;1383;48.362;10.908;2023-05-10T11:47:00;18.60;48.60
2751;DHT22;1383;48.362;10.908;2023-05-10T11:49:27;18.20;47.30
2751;DHT22;1383;48.362;10.908;2023-05-10T11:52:04;18.00;48.30
2751;DHT22;1383;48.362;10.908;2023-05-10T11:54:31;17.90;48.10
2751;DHT22;1383;48.362;10.908;2023-05-10T11:56:58;17.80;49.80
2751;DHT22;1383;48.362;10.908;2023-05-10T11:59:25;17.70;53.10
2751;DHT22;1383;48.362;10.908;2023-05-10T12:01:52;17.60;53.40
2751;DHT22;1383;48.362;10.908;2023-05-10T12:04:18;17.70;54.40
2751;DHT22;1383;48.362;10.908;2023-05-10T12:06:46;17.70;54.40
2751;DHT22;1383;48.362;10.908;2023-05-10T12:09:13;17.80;53.80
2751;DHT22;1383;48.362;10.908;2023-05-10T12:11:40;18.00;53.20
2751;DHT22;1383;48.362;10.908;2023-05-10T12:14:10;18.10;52.10
2751;DHT22;1383;48.362;10.908;2023-05-10T12:16:37;18.10;51.00
2751;DHT22;1383;48.362;10.908;2023-05-10T12:19:04;18.20;51.20
2751;DHT22;1383;48.362;10.908;2023-05-10T12:21:32;17.90;54.00
2751;DHT22;1383;48.362;10.908;2023-05-10T12:24:02;17.30;58.60
2751;DHT22;1383;48.362;10.908;2023-05-10T12:26:29;16.80;61.10
2751;DHT22;1383;48.362;10.908;2023-05-10T12:29:15;16.40;64.00
2751;DHT22;1383;48.362;10.908;2023-05-10T12:31:56;16.20;67.20
2751;DHT22;1383;48.362;10.908;2023-05-10T12:34:33;16.10;66.70
2751;DHT22;1383;48.362;10.908;2023-05-10T12:37:00;16.10;67.80
2751;DHT22;1383;48.362;10.908;2023-05-10T12:39:41;16.10;67.70
2751;DHT22;1383;48.362;10.908;2023-05-10T12:42:09;16.20;66.60
2751;DHT22;1383;48.362;10.908;2023-05-10T12:44:36;16.30;66.70
2751;DHT22;1383;48.362;10.908;2023-05-10T12:47:03;16.50;65.10
2751;DHT22;1383;48.362;10.908;2023-05-10T12:49:30;16.60;64.50
2751;DHT22;1383;48.362;10.908;2023-05-10T12:51:57;16.60;60.10
2751;DHT22;1383;48.362;10.908;2023-05-10T12:54:23;16.80;58.50
2751;DHT22;1383;48.362;10.908;2023-05-10T12:56:50;16.90;58.00
2751;DHT22;1383;48.362;10.908;2023-05-10T12:59:17;17.00;54.60
2751;DHT22;1383;48.362;10.908;2023-05-10T13:01:44;17.10;52.90
2751;DHT22;1383;48.362;10.908;2023-05-10T13:04:11;17.00;53.50
2751;DHT22;1383;48.362;10.908;2023-05-10T13:06:38;17.00;51.90
2751;DHT22;1383;48.362;10.908;2023-05-10T13:09:05;16.90;53.70
2751;DHT22;1383;48.362;10.908;2023-05-10T13:11:32;16.80;55.50
2751;DHT22;1383;48.362;10.908;2023-05-10T13:13:59;16.40;57.40
2751;DHT22;1383;48.362;10.908;2023-05-10T13:16:26;16.30;60.50
2751;DHT22;1383;48.362;10.908;2023-05-10T13:18:53;16.10;61.10
2751;DHT22;1383;48.362;10.908;2023-05-10T13:21:20;16.10;63.80
2751;DHT22;1383;48.362;10.908;2023-05-10T13:23:46;15.80;58.90
2751;DHT22;1383;48.362;10.908;2023-05-10T13:26:13;15.80;60.90
2751;DHT22;1383;48.362;10.908;2023-05-10T13:28:40;15.60;63.00
2751;DHT22;1383;48.362;10.908;2023-05-10T13:31:07;15.40;63.70
2751;DHT22;1383;48.362;10.908;2023-05-10T13:33:34;15.30;65.70
2751;DHT22;1383;48.362;10.908;2023-05-10T13:36:01;15.20;64.20
2751;DHT22;1383;48.362;10.908;2023-05-10T13:38:28;15.20;65.40
2751;DHT22;1383;48.362;10.908;2023-05-10T13:40:54;15.30;66.30
2751;DHT22;1383;48.362;10.908;2023-05-10T13:43:21;15.50;67.30
2751;DHT22;1383;48.362;10.908;2023-05-10T13:45:48;15.60;64.80
2751;DHT22;1383;48.362;10.908;2023-05-10T13:48:15;15.80;65.50
2751;DHT22;1383;48.362;10.908;2023-05-10T13:50:43;16.00;65.30
2751;DHT22;1383;48.362;10.908;2023-05-10T13:53:09;16.00;62.40
2751;DHT22;1383;48.362;10.908;2023-05-10T13:55:36;16.00;62.60
2751;DHT22;1383;48.362;10.908;2023-05-10T13:58:03;16.10;63.70
2751;DHT22;1383;48.362;10.908;2023-05-10T14:00:30;16.10;63.20
2751;DHT22;1383;48.362;10.908;2023-05-10T14:02:57;15.90;61.70
2751;DHT22;1383;48.362;10.908;2023-05-10T14:05:25;15.70;63.80
2751;DHT22;1383;48.362;10.908;2023-05-10T14:07:52;15.60;64.80
2751;DHT22;1383;48.362;10.908;2023-05-10T14:10:19;15.50;66.50
2751;DHT22;1383;48.362;10.908;2023-05-10T14:12:46;15.30;68.50
2751;DHT22;1383;48.362;10.908;2023-05-10T14:15:13;15.00;72.20
2751;DHT22;1383;48.362;10.908;2023-05-10T14:17:40;14.80;74.50
2751;DHT22;1383;48.362;10.908;2023-05-10T14:20:07;14.60;74.50
2751;DHT22;1383;48.362;10.908;2023-05-10T14:22:34;14.30;77.50
2751;DHT22;1383;48.362;10.908;2023-05-10T14:25:01;14.10;78.60
2751;DHT22;1383;48.362;10.908;2023-05-10T14:27:29;14.10;80.40
2751;DHT22;1383;48.362;10.908;2023-05-10T14:29:56;14.00;81.00
2751;DHT22;1383;48.362;10.908;2023-05-10T14:32:23;14.00;82.20
2751;DHT22;1383;48.362;10.908;2023-05-10T14:34:50;13.90;81.50
2751;DHT22;1383;48.362;10.908;2023-05-10T14:37:17;13.90;84.40
2751;DHT22;1383;48.362;10.908;2023-05-10T14:39:43;13.90;85.60
2751;DHT22;1383;48.362;10.908;2023-05-10T14:42:10;13.90;86.60
2751;DHT22;1383;48.362;10.908;2023-05-10T14:44:37;13.90;87.60
2751;DHT22;1383;48.362;10.908;2023-05-10T14:47:03;13.90;87.10
2751;DHT22;1383;48.362;10.908;2023-05-10T14:49:30;13.70;87.50
2751;DHT22;1383;48.362;10.908;2023-05-10T14:51:57;13.70;90.10
2751;DHT22;1383;48.362;10.908;2023-05-10T14:54:23;13.70;90.10
2751;DHT22;1383;48.362;10.908;2023-05-10T14:56:50;13.70;90.30
2751;DHT22;1383;48.362;10.908;2023-05-10T14:59:17;13.70;91.30
2751;DHT22;1383;48.362;10.908;2023-05-10T15:01:44;13.60;90.80
2751;DHT22;1383;48.362;10.908;2023-05-10T15:04:12;13.50;90.90
2751;DHT22;1383;48.362;10.908;2023-05-10T15:06:40;13.40;91.10
2751;DHT22;1383;48.362;10.908;2023-05-10T15:09:07;13.30;91.20
2751;DHT22;1383;48.362;10.908;2023-05-10T15:11:34;13.30;92.10
2751;DHT22;1383;48.362;10.908;2023-05-10T15:14:01;13.30;92.60
2751;DHT22;1383;48.362;10.908;2023-05-10T15:16:28;13.30;92.90
2751;DHT22;1383;48.362;10.908;2023-05-10T15:18:55;13.30;93.30
2751;DHT22;1383;48.362;10.908;2023-05-10T15:21:22;13.30;93.70
2751;DHT22;1383;48.362;10.908;2023-05-10T15:23:49;13.40;93.50
2751;DHT22;1383;48.362;10.908;2023-05-10T15:26:15;13.30;93.60
2751;DHT22;1383;48.362;10.908;2023-05-10T15:28:42;13.30;93.50
2751;DHT22;1383;48.362;10.908;2023-05-10T15:31:09;13.30;93.50
2751;DHT22;1383;48.362;10.908;2023-05-10T15:33:37;13.30;92.70
2751;DHT22;1383;48.362;10.908;2023-05-10T15:36:05;13.20;90.40
2751;DHT22;1383;48.362;10.908;2023-05-10T15:38:31;13.10;89.60
2751;DHT22;1383;48.362;10.908;2023-05-10T15:40:58;13.10;90.40
2751;DHT22;1383;48.362;10.908;2023-05-10T15:43:25;13.00;90.10
2751;DHT22;1383;48.362;10.908;2023-05-10T15:45:52;13.00;90.30
2751;DHT22;1383;48.362;10.908;2023-05-10T15:48:18;13.00;90.80
2751;DHT22;1383;48.362;10.908;2023-05-10T15:50:45;13.00;90.70
2751;DHT22;1383;48.362;10.908;2023-05-10T15:53:12;13.10;91.00
2751;DHT22;1383;48.362;10.908;2023-05-10T15:55:39;13.10;90.50
2751;DHT22;1383;48.362;10.908;2023-05-10T15:58:05;13.20;90.80
2751;DHT22;1383;48.362;10.908;2023-05-10T16:00:32;13.30;90.80
2751;DHT22;1383;48.362;10.908;2023-05-10T16:02:59;13.20;88.80
2751;DHT22;1383;48.362;10.908;2023-05-10T16:05:26;13.20;87.80
2751;DHT22;1383;48.362;10.908;2023-05-10T16:07:57;13.30;88.50
2751;DHT22;1383;48.362;10.908;2023-05-10T16:10:24;13.30;87.20
2751;DHT22;1383;48.362;10.908;2023-05-10T16:12:50;13.40;89.20
2751;DHT22;1383;48.362;10.908;2023-05-10T16:15:17;13.40;90.00
2751;DHT22;1383;48.362;10.908;2023-05-10T16:17:44;13.40;90.00
2751;DHT22;1383;48.362;10.908;2023-05-10T16:20:11;13.40;88.90
2751;DHT22;1383;48.362;10.908;2023-05-10T16:22:38;13.40;88.90
2751;DHT22;1383;48.362;10.908;2023-05-10T16:25:05;13.40;88.90